Time;durP1;ratioP1;P1;durP2;ratioP2;P2;SDS_P1;SDS_P2;PMS_P1;PMS_P2;Temp;Humidity;BMP_temperature;BMP_pressure;BME280_temperature;BME280_humidity;BME280_pressure;Samples;Min_cycle;Max_cycle;Signal;HPM_P1;HPM_P2
2022/02/15 00:01:20;;;;;;;;;;;8.30;99.90;;;;;;5018676;28;19960;-70
2022/02/15 00:03:46;;;;;;;;;;;8.40;99.90;;;;;;5035958;28;20274;-72
2022/02/15 00:06:12;;;;;;;;;;;8.20;99.90;;;;;;5035090;28;19912;-71
2022/02/15 00:08:37;;;;;;;;;;;8.20;99.90;;;;;;5035383;28;19909;-72
2022/02/15 00:11:03;;;;;;;;;;;8.20;99.90;;;;;;5035338;28;19991;-73
2022/02/15 00:13:28;;;;;;;;;;;8.10;99.90;;;;;;5017567;28;20270;-72
2022/02/15 00:15:54;;;;;;;;;;;8.10;99.90;;;;;;5017576;28;19917;-72
2022/02/15 00:18:19;;;;;;;;;;;8.10;99.90;;;;;;5034845;28;19905;-72
2022/02/15 00:20:45;;;;;;;;;;;8.10;99.90;;;;;;5017629;28;19905;-72
2022/02/15 00:23:10;;;;;;;;;;;8.20;99.90;;;;;;5017069;28;19959;-71
2022/02/15 00:25:36;;;;;;;;;;;8.20;99.90;;;;;;5017935;28;20329;-73
2022/02/15 00:28:02;;;;;;;;;;;8.20;99.90;;;;;;5037029;28;19912;-72
2022/02/15 00:30:28;;;;;;;;;;;8.30;99.90;;;;;;5021099;28;19955;-72
2022/02/15 00:32:53;;;;;;;;;;;8.20;99.90;;;;;;5019934;28;19905;-71
2022/02/15 00:35:19;;;;;;;;;;;8.30;99.90;;;;;;5018149;28;19931;-73
2022/02/15 00:37:45;;;;;;;;;;;8.40;99.90;;;;;;5017770;28;19909;-72
2022/02/15 00:40:11;;;;;;;;;;;8.40;99.90;;;;;;5016737;28;20374;-73
2022/02/15 00:42:37;;;;;;;;;;;8.50;99.90;;;;;;5017151;28;19909;-73
2022/02/15 00:45:03;;;;;;;;;;;8.50;99.90;;;;;;5034395;28;19959;-72
2022/02/15 00:47:29;;;;;;;;;;;8.40;99.90;;;;;;5016812;28;19909;-71
2022/02/15 00:49:55;;;;;;;;;;;8.40;99.90;;;;;;5035098;28;19905;-73
2022/02/15 00:52:20;;;;;;;;;;;8.50;99.90;;;;;;5017390;28;19920;-73
2022/02/15 00:54:46;;;;;;;;;;;8.30;99.90;;;;;;5019431;28;19905;-71
2022/02/15 00:57:11;;;;;;;;;;;8.30;99.90;;;;;;5037661;28;19905;-76
2022/02/15 00:59:37;;;;;;;;;;;8.30;99.90;;;;;;5020956;28;19996;-72
2022/02/15 01:02:03;;;;;;;;;;;8.20;99.90;;;;;;5038012;28;20282;-71
2022/02/15 01:04:28;;;;;;;;;;;8.00;99.90;;;;;;5036893;28;19905;-71
2022/02/15 01:06:54;;;;;;;;;;;8.20;99.90;;;;;;5018153;28;19912;-71
2022/02/15 01:09:19;;;;;;;;;;;8.20;99.90;;;;;;5025629;28;19927;-71
2022/02/15 01:11:45;;;;;;;;;;;8.20;99.90;;;;;;5037208;28;19911;-72
2022/02/15 01:14:10;;;;;;;;;;;8.10;99.90;;;;;;5037722;28;20424;-71
2022/02/15 01:16:36;;;;;;;;;;;8.10;99.90;;;;;;5037976;28;19927;-71
2022/02/15 01:19:02;;;;;;;;;;;7.90;99.90;;;;;;5038336;28;19912;-71
2022/02/15 01:21:28;;;;;;;;;;;8.00;99.90;;;;;;5039403;28;20262;-71
2022/02/15 01:23:54;;;;;;;;;;;8.10;99.90;;;;;;5039169;28;19912;-70
2022/02/15 01:26:19;;;;;;;;;;;8.00;99.90;;;;;;5056731;28;19943;-71
2022/02/15 01:28:45;;;;;;;;;;;8.00;99.90;;;;;;5038674;28;19998;-71
2022/02/15 01:31:10;;;;;;;;;;;8.00;99.90;;;;;;5037307;28;19904;-72
2022/02/15 01:33:36;;;;;;;;;;;7.90;99.90;;;;;;5036373;28;19911;-70
2022/02/15 01:36:01;;;;;;;;;;;7.70;99.90;;;;;;5052999;28;19916;-71
2022/02/15 01:38:27;;;;;;;;;;;7.90;99.90;;;;;;5036541;28;19905;-71
2022/02/15 01:40:53;;;;;;;;;;;7.80;99.90;;;;;;5054011;28;19908;-70
2022/02/15 01:43:18;;;;;;;;;;;7.80;99.90;;;;;;5054710;28;19908;-71
2022/02/15 01:45:44;;;;;;;;;;;7.80;99.90;;;;;;5037435;28;20345;-71
2022/02/15 01:48:10;;;;;;;;;;;7.80;99.90;;;;;;5053382;28;19905;-71
2022/02/15 01:50:35;;;;;;;;;;;7.80;99.90;;;;;;5056751;28;19904;-71
2022/02/15 01:53:01;;;;;;;;;;;7.90;99.90;;;;;;5039265;28;20392;-74
2022/02/15 01:55:27;;;;;;;;;;;7.90;99.90;;;;;;5039578;28;19913;-71
2022/02/15 01:57:52;;;;;;;;;;;7.90;99.90;;;;;;5039514;28;19904;-71
2022/02/15 02:00:19;;;;;;;;;;;7.80;99.90;;;;;;5038619;28;20365;-71
2022/02/15 02:02:45;;;;;;;;;;;7.80;99.90;;;;;;5057451;28;19905;-71
2022/02/15 02:07:56;;;;;;;;;;;7.70;99.90;;;;;;5057202;28;19912;-72
2022/02/15 02:10:22;;;;;;;;;;;7.70;99.90;;;;;;5057446;28;20386;-71
2022/02/15 02:12:47;;;;;;;;;;;7.80;99.90;;;;;;5060733;28;19909;-71
2022/02/15 02:15:21;;;;;;;;;;;7.80;99.90;;;;;;5056959;28;20349;-71
2022/02/15 02:17:47;;;;;;;;;;;7.80;99.90;;;;;;5022809;28;19923;-72
2022/02/15 02:20:13;;;;;;;;;;;7.70;99.90;;;;;;5038354;28;19995;-71
2022/02/15 02:22:39;;;;;;;;;;;7.70;99.90;;;;;;5039123;28;19912;-71
2022/02/15 02:25:05;;;;;;;;;;;7.70;99.90;;;;;;5038531;28;20270;-72
2022/02/15 02:27:32;;;;;;;;;;;7.70;99.90;;;;;;5057211;28;19912;-71
2022/02/15 02:29:58;;;;;;;;;;;7.70;99.90;;;;;;5039621;28;19908;-71
2022/02/15 02:32:24;;;;;;;;;;;7.70;99.90;;;;;;5057167;28;20361;-71
2022/02/15 02:34:50;;;;;;;;;;;7.70;99.90;;;;;;5039171;28;19951;-72
2022/02/15 02:37:16;;;;;;;;;;;7.80;99.90;;;;;;5055644;28;19905;-71
2022/02/15 02:39:46;;;;;;;;;;;7.70;99.90;;;;;;5038702;28;20003;-72
2022/02/15 02:42:11;;;;;;;;;;;7.70;99.90;;;;;;5056250;28;19959;-72
2022/02/15 02:44:37;;;;;;;;;;;7.70;99.90;;;;;;5056374;28;19905;-71
2022/02/15 02:47:04;;;;;;;;;;;7.70;99.90;;;;;;5056434;28;19951;-71
2022/02/15 02:49:30;;;;;;;;;;;7.70;99.90;;;;;;5038680;28;19905;-73
2022/02/15 02:51:56;;;;;;;;;;;7.70;99.90;;;;;;5038764;28;19905;-71
2022/02/15 02:54:23;;;;;;;;;;;7.60;99.90;;;;;;5038462;28;19911;-72
2022/02/15 02:56:48;;;;;;;;;;;7.60;99.90;;;;;;5038395;28;20285;-71
2022/02/15 02:59:14;;;;;;;;;;;7.60;99.90;;;;;;5038230;28;19904;-72
2022/02/15 03:01:39;;;;;;;;;;;7.60;99.90;;;;;;5037704;28;19904;-71
2022/02/15 03:04:05;;;;;;;;;;;7.60;99.90;;;;;;5056182;28;19911;-73
2022/02/15 03:06:30;;;;;;;;;;;7.50;99.90;;;;;;5038367;28;19912;-71
2022/02/15 03:08:56;;;;;;;;;;;7.60;99.90;;;;;;5056689;28;19904;-72
2022/02/15 03:11:21;;;;;;;;;;;7.50;99.90;;;;;;5037963;28;19995;-72
2022/02/15 03:13:47;;;;;;;;;;;7.40;99.90;;;;;;5055855;28;20008;-71
2022/02/15 03:16:12;;;;;;;;;;;7.40;99.90;;;;;;5037545;28;19970;-72
2022/02/15 03:18:38;;;;;;;;;;;7.40;99.90;;;;;;5038178;28;20301;-71
2022/02/15 03:21:03;;;;;;;;;;;7.50;99.90;;;;;;5055875;28;19911;-72
2022/02/15 03:23:29;;;;;;;;;;;7.40;99.90;;;;;;5037801;28;19904;-72
2022/02/15 03:25:54;;;;;;;;;;;7.50;99.90;;;;;;5055897;28;20403;-71
2022/02/15 03:28:20;;;;;;;;;;;7.50;99.90;;;;;;5056122;28;19905;-72
2022/02/15 03:30:45;;;;;;;;;;;7.60;99.90;;;;;;5038751;28;19912;-71
2022/02/15 03:33:11;;;;;;;;;;;7.60;99.90;;;;;;5056986;28;20292;-72
2022/02/15 03:35:36;;;;;;;;;;;7.50;99.90;;;;;;5039114;28;19912;-72
2022/02/15 03:38:02;;;;;;;;;;;7.60;99.90;;;;;;5057161;28;20053;-71
2022/02/15 03:43:04;;;;;;;;;;;7.50;99.90;;;;;;5039520;28;19920;-73
2022/02/15 03:43:13;;;;;;;;;;;7.40;99.90;;;;;;5057557;28;19998;-74
2022/02/15 03:45:39;;;;;;;;;;;7.50;99.90;;;;;;5040782;28;19908;-75
2022/02/15 03:48:05;;;;;;;;;;;7.50;99.90;;;;;;5058207;28;19927;-72
2022/02/15 03:50:30;;;;;;;;;;;7.50;99.90;;;;;;5057051;28;19905;-71
2022/02/15 03:52:56;;;;;;;;;;;7.40;99.90;;;;;;5040212;28;19940;-72
2022/02/15 03:55:21;;;;;;;;;;;7.40;99.90;;;;;;5039026;28;19913;-72
2022/02/15 03:57:47;;;;;;;;;;;7.40;99.90;;;;;;5040450;28;19904;-73
2022/02/15 04:00:13;;;;;;;;;;;7.40;99.90;;;;;;5041253;28;19927;-72
2022/02/15 04:02:38;;;;;;;;;;;7.60;99.90;;;;;;5059731;28;19923;-74
2022/02/15 04:05:04;;;;;;;;;;;7.60;99.90;;;;;;5042585;28;19908;-72
2022/02/15 04:07:31;;;;;;;;;;;7.70;99.90;;;;;;5059913;28;19911;-71
2022/02/15 04:09:56;;;;;;;;;;;7.70;99.90;;;;;;5041160;28;20342;-71
2022/02/15 04:12:22;;;;;;;;;;;7.70;99.90;;;;;;5039964;28;19915;-71
2022/02/15 04:14:48;;;;;;;;;;;7.70;99.90;;;;;;5038780;28;20278;-73
2022/02/15 04:17:14;;;;;;;;;;;7.80;99.90;;;;;;5039117;28;19920;-73
2022/02/15 04:19:40;;;;;;;;;;;7.80;99.90;;;;;;5039990;28;19905;-72
2022/02/15 04:22:06;;;;;;;;;;;7.80;99.90;;;;;;5041002;28;19912;-70
2022/02/15 04:24:32;;;;;;;;;;;7.80;99.90;;;;;;5042675;28;19905;-72
2022/02/15 04:26:57;;;;;;;;;;;7.90;99.90;;;;;;5060589;28;19904;-72
2022/02/15 04:29:25;;;;;;;;;;;7.90;99.90;;;;;;5057938;28;19905;-71
2022/02/15 04:31:52;;;;;;;;;;;7.80;99.90;;;;;;5037167;28;19904;-71
2022/02/15 04:34:17;;;;;;;;;;;7.90;99.90;;;;;;5036825;28;19999;-71
2022/02/15 04:36:43;;;;;;;;;;;7.80;99.90;;;;;;5036956;28;19975;-71
2022/02/15 04:39:08;;;;;;;;;;;7.80;99.90;;;;;;5055319;28;19904;-71
2022/02/15 04:41:34;;;;;;;;;;;7.80;99.90;;;;;;5038078;28;19927;-72
2022/02/15 04:43:59;;;;;;;;;;;7.70;99.90;;;;;;5057779;28;19993;-72
2022/02/15 04:46:25;;;;;;;;;;;7.70;99.90;;;;;;5055689;28;19905;-71
2022/02/15 04:48:51;;;;;;;;;;;7.60;99.90;;;;;;5055707;28;19912;-72
2022/02/15 04:51:16;;;;;;;;;;;7.80;99.90;;;;;;5037407;28;20335;-71
2022/02/15 04:53:42;;;;;;;;;;;7.80;99.90;;;;;;5055291;28;19905;-71
2022/02/15 04:56:07;;;;;;;;;;;7.90;99.90;;;;;;5054793;28;20019;-71
2022/02/15 04:58:33;;;;;;;;;;;7.90;99.90;;;;;;5054737;28;20289;-71
2022/02/15 05:00:58;;;;;;;;;;;7.90;99.90;;;;;;5056632;28;20239;-71
2022/02/15 05:03:24;;;;;;;;;;;7.90;99.90;;;;;;5056597;28;20338;-72
2022/02/15 05:05:49;;;;;;;;;;;7.90;99.90;;;;;;5057293;28;20270;-71
2022/02/15 05:08:16;;;;;;;;;;;7.90;99.90;;;;;;5039709;28;20270;-71
2022/02/15 05:10:42;;;;;;;;;;;7.80;99.90;;;;;;5041029;28;20306;-71
2022/02/15 05:13:11;;;;;;;;;;;7.90;99.90;;;;;;5057599;28;20179;-70
2022/02/15 05:15:37;;;;;;;;;;;7.70;99.90;;;;;;5038683;28;19912;-71
2022/02/15 05:18:03;;;;;;;;;;;7.70;99.90;;;;;;5039294;28;20007;-72
2022/02/15 05:20:28;;;;;;;;;;;7.70;99.90;;;;;;5039391;28;19915;-72
2022/02/15 05:22:54;;;;;;;;;;;7.70;99.90;;;;;;5039576;28;20007;-72
2022/02/15 05:25:19;;;;;;;;;;;7.70;99.90;;;;;;5059347;28;19959;-71
2022/02/15 05:27:45;;;;;;;;;;;7.70;99.90;;;;;;5042333;28;19912;-72
2022/02/15 05:30:11;;;;;;;;;;;7.70;99.90;;;;;;5041757;28;19909;-71
2022/02/15 05:32:37;;;;;;;;;;;7.80;99.90;;;;;;5041209;28;19905;-71
2022/02/15 05:35:03;;;;;;;;;;;7.80;99.90;;;;;;5041738;28;19911;-71
2022/02/15 05:37:28;;;;;;;;;;;7.90;99.90;;;;;;5041611;28;20002;-71
2022/02/15 05:39:54;;;;;;;;;;;7.80;99.90;;;;;;5061635;28;19905;-72
2022/02/15 05:42:19;;;;;;;;;;;7.80;99.90;;;;;;5045115;28;19916;-70
2022/02/15 05:44:45;;;;;;;;;;;7.90;99.90;;;;;;5045282;28;19909;-73
2022/02/15 05:47:10;;;;;;;;;;;7.90;99.90;;;;;;5045514;28;19983;-73
2022/02/15 05:50:49;;;;;;;;;;;7.90;99.90;;;;;;5061112;28;20398;-70
2022/02/15 05:52:21;;;;;;;;;;;7.90;99.90;;;;;;5057832;28;19905;-70
2022/02/15 05:54:47;;;;;;;;;;;7.90;99.90;;;;;;5039906;28;19904;-71
2022/02/15 05:57:13;;;;;;;;;;;7.90;99.90;;;;;;5039646;28;20278;-72
2022/02/15 05:59:39;;;;;;;;;;;7.90;99.90;;;;;;5038931;28;19904;-71
2022/02/15 06:02:05;;;;;;;;;;;7.90;99.90;;;;;;5057249;28;20346;-70
2022/02/15 06:04:30;;;;;;;;;;;7.80;99.90;;;;;;5038970;28;19912;-71
2022/02/15 06:06:56;;;;;;;;;;;7.80;99.90;;;;;;5057001;28;20003;-71
2022/02/15 06:09:21;;;;;;;;;;;7.80;99.90;;;;;;5038487;28;19911;-71
2022/02/15 06:11:48;;;;;;;;;;;7.80;99.90;;;;;;5039045;28;20384;-71
2022/02/15 06:14:13;;;;;;;;;;;7.80;99.90;;;;;;5056850;28;19923;-70
2022/02/15 06:16:39;;;;;;;;;;;7.90;99.90;;;;;;5056538;28;19913;-73
2022/02/15 06:19:04;;;;;;;;;;;7.90;99.90;;;;;;5056860;28;19905;-72
2022/02/15 06:21:30;;;;;;;;;;;7.90;99.90;;;;;;5039016;28;20312;-71
2022/02/15 06:23:57;;;;;;;;;;;7.90;99.90;;;;;;5040203;28;19912;-72
2022/02/15 06:26:23;;;;;;;;;;;7.90;99.90;;;;;;5042305;28;19904;-72
2022/02/15 06:28:48;;;;;;;;;;;7.90;99.90;;;;;;5057237;28;19916;-72
2022/02/15 06:31:14;;;;;;;;;;;7.80;99.90;;;;;;5039044;28;19915;-70
2022/02/15 06:33:39;;;;;;;;;;;7.80;99.90;;;;;;5056288;28;19974;-72
2022/02/15 06:36:05;;;;;;;;;;;7.80;99.90;;;;;;5038559;28;20284;-73
2022/02/15 06:38:32;;;;;;;;;;;7.90;99.90;;;;;;5040325;28;19905;-72
2022/02/15 06:40:57;;;;;;;;;;;7.90;99.90;;;;;;5042809;28;19940;-72
2022/02/15 06:43:23;;;;;;;;;;;7.90;99.90;;;;;;5042910;28;20385;-72
2022/02/15 06:45:48;;;;;;;;;;;7.90;99.90;;;;;;5042371;28;20302;-72
2022/02/15 06:48:14;;;;;;;;;;;7.90;99.90;;;;;;5041369;28;19905;-72
2022/02/15 06:50:40;;;;;;;;;;;7.80;99.90;;;;;;5015349;28;20027;-73
2022/02/15 06:53:05;;;;;;;;;;;7.70;99.90;;;;;;4998738;28;20032;-72
2022/02/15 06:55:31;;;;;;;;;;;7.70;99.90;;;;;;5014665;28;19933;-71
2022/02/15 06:57:57;;;;;;;;;;;7.80;99.90;;;;;;5014595;28;19937;-71
2022/02/15 07:00:22;;;;;;;;;;;7.80;99.90;;;;;;4997805;28;19905;-73
2022/02/15 07:02:48;;;;;;;;;;;7.70;99.90;;;;;;5015109;28;19920;-71
2022/02/15 07:05:13;;;;;;;;;;;7.80;99.90;;;;;;5014618;28;20017;-71
2022/02/15 07:07:39;;;;;;;;;;;7.80;99.90;;;;;;4997333;28;20127;-71
2022/02/15 07:10:05;;;;;;;;;;;7.80;99.90;;;;;;4997653;28;19940;-72
2022/02/15 07:12:31;;;;;;;;;;;7.80;99.90;;;;;;5013682;28;19952;-72
2022/02/15 07:14:57;;;;;;;;;;;7.80;99.90;;;;;;5014142;28;20012;-72
2022/02/15 07:17:24;;;;;;;;;;;7.80;99.90;;;;;;4997236;28;20366;-72
2022/02/15 07:19:52;;;;;;;;;;;7.90;99.90;;;;;;4997784;28;20378;-72
2022/02/15 07:22:18;;;;;;;;;;;7.90;99.90;;;;;;4998637;28;20401;-71
2022/02/15 07:24:44;;;;;;;;;;;7.90;99.90;;;;;;4999843;28;19924;-71
2022/02/15 07:27:09;;;;;;;;;;;8.00;99.90;;;;;;5021600;28;19906;-74
2022/02/15 07:29:35;;;;;;;;;;;8.00;99.90;;;;;;5040046;28;20353;-67
2022/02/15 07:32:01;;;;;;;;;;;7.90;99.90;;;;;;5039119;28;19905;-65
2022/02/15 07:34:26;;;;;;;;;;;7.80;99.90;;;;;;5056071;28;19912;-65
2022/02/15 07:36:52;;;;;;;;;;;7.70;99.90;;;;;;5055682;28;19913;-65
2022/02/15 07:39:17;;;;;;;;;;;7.80;99.90;;;;;;5055866;28;20255;-67
2022/02/15 07:41:43;;;;;;;;;;;7.70;99.90;;;;;;5033438;28;19964;-68
2022/02/15 07:44:08;;;;;;;;;;;7.90;99.90;;;;;;5037154;28;19955;-64
2022/02/15 07:46:34;;;;;;;;;;;7.90;99.90;;;;;;5035363;28;19909;-66
2022/02/15 07:48:59;;;;;;;;;;;7.80;99.90;;;;;;5045450;28;20247;-65
2022/02/15 07:51:25;;;;;;;;;;;7.80;99.90;;;;;;5036833;28;19908;-67
2022/02/15 07:53:51;;;;;;;;;;;7.90;99.90;;;;;;5034343;28;19936;-63
2022/02/15 07:56:16;;;;;;;;;;;7.80;99.90;;;;;;5048735;28;20042;-65
2022/02/15 07:58:42;;;;;;;;;;;7.80;99.90;;;;;;5030002;28;20012;-63
2022/02/15 08:01:07;;;;;;;;;;;8.50;99.90;;;;;;5037469;28;20334;-63
2022/02/15 08:03:33;;;;;;;;;;;9.70;99.90;;;;;;5036082;28;19954;-64
2022/02/15 08:05:59;;;;;;;;;;;10.00;99.90;;;;;;5037312;28;19962;-64
2022/02/15 08:08:24;;;;;;;;;;;10.20;99.90;;;;;;5053688;28;20276;-63
2022/02/15 08:10:50;;;;;;;;;;;10.10;99.90;;;;;;5036450;28;19956;-63
2022/02/15 08:13:20;;;;;;;;;;;10.20;99.90;;;;;;5053997;28;19912;-63
2022/02/15 08:15:48;;;;;;;;;;;10.10;99.90;;;;;;5035786;28;19912;-63
2022/02/15 08:18:14;;;;;;;;;;;9.90;99.90;;;;;;5036337;28;19909;-63
2022/02/15 08:20:40;;;;;;;;;;;10.10;99.90;;;;;;5035198;28;20259;-63
2022/02/15 08:23:05;;;;;;;;;;;9.50;99.90;;;;;;5052288;28;20269;-63
2022/02/15 08:25:31;;;;;;;;;;;9.00;99.90;;;;;;5051063;28;20027;-65
2022/02/15 08:27:57;;;;;;;;;;;8.60;99.90;;;;;;5037553;28;19958;-64
2022/02/15 08:30:23;;;;;;;;;;;8.20;99.90;;;;;;5036605;28;19975;-64
2022/02/15 08:32:48;;;;;;;;;;;8.30;99.90;;;;;;5033969;28;20350;-64
2022/02/15 08:35:15;;;;;;;;;;;8.30;99.90;;;;;;5016482;28;20351;-64
2022/02/15 08:37:41;;;;;;;;;;;8.40;99.90;;;;;;5034238;28;19905;-70
2022/02/15 08:40:07;;;;;;;;;;;8.40;99.90;;;;;;5033841;28;20369;-64
2022/02/15 08:42:33;;;;;;;;;;;8.50;99.90;;;;;;5031537;28;19952;-63
2022/02/15 08:44:59;;;;;;;;;;;8.40;99.90;;;;;;5035042;28;19975;-68
2022/02/15 08:47:25;;;;;;;;;;;8.40;99.90;;;;;;5023176;28;19905;-64
2022/02/15 08:49:54;;;;;;;;;;;8.30;99.90;;;;;;5021569;28;19912;-65
2022/02/15 08:52:29;;;;;;;;;;;8.30;99.90;;;;;;5054508;28;19931;-64
2022/02/15 08:54:54;;;;;;;;;;;8.30;99.90;;;;;;5036871;28;19912;-65
2022/02/15 08:57:20;;;;;;;;;;;8.30;99.90;;;;;;5045168;28;19916;-64
2022/02/15 08:59:46;;;;;;;;;;;8.30;99.90;;;;;;5024657;28;20086;-65
2022/02/15 09:02:12;;;;;;;;;;;8.50;99.90;;;;;;5054089;28;19950;-64
2022/02/15 09:04:38;;;;;;;;;;;8.80;99.90;;;;;;5035843;28;19928;-65
2022/02/15 09:07:04;;;;;;;;;;;9.10;99.90;;;;;;5053283;28;19904;-65
2022/02/15 09:09:29;;;;;;;;;;;9.20;99.90;;;;;;5053562;28;19905;-64
2022/02/15 09:11:55;;;;;;;;;;;9.10;99.90;;;;;;5035969;28;19913;-65
2022/02/15 09:14:21;;;;;;;;;;;9.00;99.90;;;;;;5054250;28;19996;-63
2022/02/15 09:16:46;;;;;;;;;;;8.90;99.90;;;;;;5053887;28;19992;-64
2022/02/15 09:19:12;;;;;;;;;;;9.00;99.90;;;;;;5036402;28;19909;-64
2022/02/15 09:21:39;;;;;;;;;;;9.00;99.90;;;;;;5025471;28;19989;-68
2022/02/15 09:24:04;;;;;;;;;;;9.20;99.90;;;;;;5033637;28;20316;-65
2022/02/15 09:26:30;;;;;;;;;;;10.20;99.90;;;;;;5015538;28;19905;-66
2022/02/15 09:28:56;;;;;;;;;;;10.90;99.90;;;;;;5033263;28;20008;-65
2022/02/15 09:31:22;;;;;;;;;;;11.30;99.90;;;;;;5033154;28;20429;-69
2022/02/15 09:33:52;;;;;;;;;;;11.10;99.90;;;;;;5018450;28;19959;-64
2022/02/15 09:36:24;;;;;;;;;;;10.50;99.90;;;;;;5015405;28;19913;-65
2022/02/15 09:38:50;;;;;;;;;;;10.20;99.90;;;;;;5032998;28;19905;-66
2022/02/15 09:41:15;;;;;;;;;;;10.00;99.90;;;;;;5033539;28;19975;-66
2022/02/15 09:43:41;;;;;;;;;;;9.80;99.90;;;;;;5046103;28;19920;-64
2022/02/15 09:46:08;;;;;;;;;;;9.70;99.90;;;;;;5036360;28;19955;-65
2022/02/15 09:48:34;;;;;;;;;;;9.70;99.90;;;;;;5035116;28;19927;-64
2022/02/15 09:50:59;;;;;;;;;;;9.60;99.90;;;;;;5053889;28;20307;-68
2022/02/15 09:53:25;;;;;;;;;;;9.30;99.90;;;;;;5037229;28;20345;-64
2022/02/15 09:55:51;;;;;;;;;;;9.30;99.90;;;;;;5054925;28;19913;-64
2022/02/15 09:58:18;;;;;;;;;;;9.40;99.90;;;;;;5053561;28;20388;-72
2022/02/15 10:00:46;;;;;;;;;;;10.20;99.90;;;;;;5054174;28;19912;-64
2022/02/15 10:03:12;;;;;;;;;;;9.80;99.90;;;;;;5019965;28;20270;-65
2022/02/15 10:05:37;;;;;;;;;;;9.50;99.90;;;;;;5017405;28;19911;-65
2022/02/15 10:08:03;;;;;;;;;;;9.40;99.90;;;;;;5035350;28;19924;-66
2022/02/15 10:10:30;;;;;;;;;;;9.20;99.90;;;;;;5036863;28;20004;-65
2022/02/15 10:12:56;;;;;;;;;;;9.20;99.90;;;;;;5021039;28;20461;-64
2022/02/15 10:15:27;;;;;;;;;;;9.10;99.90;;;;;;5046633;28;20051;-63
2022/02/15 10:17:53;;;;;;;;;;;9.20;99.90;;;;;;5039197;28;19909;-64
2022/02/15 10:20:25;;;;;;;;;;;9.30;99.90;;;;;;5058554;28;19916;-69
2022/02/15 10:22:50;;;;;;;;;;;9.30;99.90;;;;;;5040220;28;20506;-64
2022/02/15 10:25:16;;;;;;;;;;;9.30;99.90;;;;;;5056961;28;19908;-67
2022/02/15 10:27:44;;;;;;;;;;;9.40;99.90;;;;;;5038847;28;19905;-65
2022/02/15 10:30:12;;;;;;;;;;;9.40;99.90;;;;;;5057127;28;19921;-63
2022/02/15 10:32:37;;;;;;;;;;;9.70;99.90;;;;;;5057499;28;19905;-68
2022/02/15 10:35:03;;;;;;;;;;;9.70;99.90;;;;;;5040572;28;19958;-64
2022/02/15 10:37:32;;;;;;;;;;;9.70;99.90;;;;;;5040107;28;19966;-64
2022/02/15 10:39:59;;;;;;;;;;;9.50;99.90;;;;;;5057458;28;19905;-66
2022/02/15 10:42:28;;;;;;;;;;;9.40;99.90;;;;;;5039137;28;19909;-64
2022/02/15 10:44:57;;;;;;;;;;;9.50;99.90;;;;;;5057203;28;19909;-67
2022/02/15 10:47:22;;;;;;;;;;;9.50;99.90;;;;;;5038792;28;19916;-64
2022/02/15 10:49:48;;;;;;;;;;;9.60;99.90;;;;;;5049106;28;19909;-64
2022/02/15 10:52:14;;;;;;;;;;;9.50;99.90;;;;;;5058815;28;19905;-65
2022/02/15 10:54:40;;;;;;;;;;;9.50;99.90;;;;;;5046073;28;20384;-63
2022/02/15 10:57:08;;;;;;;;;;;9.60;99.90;;;;;;5038216;28;19939;-67
2022/02/15 10:59:34;;;;;;;;;;;9.50;99.90;;;;;;5020061;28;19913;-67
2022/02/15 11:02:01;;;;;;;;;;;9.60;99.90;;;;;;5037973;28;19955;-64
2022/02/15 11:04:29;;;;;;;;;;;9.60;99.90;;;;;;5037176;28;19909;-65
2022/02/15 11:06:55;;;;;;;;;;;9.70;99.90;;;;;;5036498;28;19905;-65
2022/02/15 11:09:24;;;;;;;;;;;9.80;99.90;;;;;;5019839;28;19909;-66
2022/02/15 11:12:21;;;;;;;;;;;9.90;99.90;;;;;;5035667;28;19909;-64
2022/02/15 11:14:59;;;;;;;;;;;9.90;99.90;;;;;;4993841;28;20443;-64
2022/02/15 11:17:25;;;;;;;;;;;9.80;99.90;;;;;;4979039;28;20371;-63
2022/02/15 11:20:06;;;;;;;;;;;9.80;99.90;;;;;;5013882;28;20299;-64
2022/02/15 11:23:01;;;;;;;;;;;9.80;99.90;;;;;;4997072;28;19912;-63
2022/02/15 11:25:37;;;;;;;;;;;9.80;99.90;;;;;;5001075;28;19906;-66
2022/02/15 11:28:06;;;;;;;;;;;9.90;99.90;;;;;;4997113;28;19909;-67
2022/02/15 11:30:45;;;;;;;;;;;10.00;99.90;;;;;;5012681;28;19956;-67
2022/02/15 11:33:10;;;;;;;;;;;10.50;99.90;;;;;;4996874;28;19936;-66
2022/02/15 11:35:36;;;;;;;;;;;10.90;99.90;;;;;;5013498;28;19909;-65
2022/02/15 11:38:09;;;;;;;;;;;11.00;99.90;;;;;;5012939;28;20350;-64
2022/02/15 11:40:35;;;;;;;;;;;10.90;99.90;;;;;;4996204;28;19906;-64
2022/02/15 11:43:03;;;;;;;;;;;11.20;99.90;;;;;;4996246;28;19905;-64
2022/02/15 11:45:29;;;;;;;;;;;11.90;99.90;;;;;;5012767;28;19952;-65
2022/02/15 11:48:04;;;;;;;;;;;12.30;99.10;;;;;;4995644;28;20076;-63
2022/02/15 11:50:39;;;;;;;;;;;12.00;99.10;;;;;;5007570;28;19952;-65
2022/02/15 11:53:05;;;;;;;;;;;12.10;99.10;;;;;;5016741;28;19913;-65
2022/02/15 11:55:33;;;;;;;;;;;12.00;98.90;;;;;;5016855;28;19913;-66
2022/02/15 11:57:59;;;;;;;;;;;12.80;99.90;;;;;;5034032;28;19920;-65
2022/02/15 12:00:31;;;;;;;;;;;13.30;99.90;;;;;;5034611;28;19992;-66
2022/02/15 12:02:56;;;;;;;;;;;13.40;96.60;;;;;;5048128;28;19908;-67
2022/02/15 12:05:27;;;;;;;;;;;13.50;95.90;;;;;;5049247;28;19916;-65
2022/02/15 12:07:54;;;;;;;;;;;13.70;94.70;;;;;;5031078;28;19915;-68
2022/02/15 12:10:19;;;;;;;;;;;13.90;93.50;;;;;;5031968;28;20002;-66
2022/02/15 12:12:47;;;;;;;;;;;14.50;92.90;;;;;;5049623;28;19948;-69
2022/02/15 12:15:13;;;;;;;;;;;14.90;91.60;;;;;;5032219;28;19982;-65
2022/02/15 12:17:46;;;;;;;;;;;15.00;90.90;;;;;;5030677;28;19925;-68
2022/02/15 12:20:16;;;;;;;;;;;14.70;91.60;;;;;;5051315;28;19999;-66
2022/02/15 12:22:48;;;;;;;;;;;14.60;92.10;;;;;;5031530;28;19909;-66
2022/02/15 12:25:14;;;;;;;;;;;14.10;92.10;;;;;;5050263;28;20443;-64
2022/02/15 12:27:44;;;;;;;;;;;13.90;92.50;;;;;;5031547;28;19909;-67
2022/02/15 12:30:13;;;;;;;;;;;14.00;92.80;;;;;;5050076;28;19912;-70
2022/02/15 12:32:40;;;;;;;;;;;13.50;93.20;;;;;;5048706;28;19916;-66
2022/02/15 12:35:07;;;;;;;;;;;13.20;93.40;;;;;;5049842;28;19924;-65
2022/02/15 12:37:33;;;;;;;;;;;12.70;94.70;;;;;;5049410;28;20392;-65
2022/02/15 12:40:00;;;;;;;;;;;12.70;95.70;;;;;;5048588;28;19913;-65
2022/02/15 12:42:28;;;;;;;;;;;12.60;96.00;;;;;;5049236;28;19915;-66
2022/02/15 12:44:59;;;;;;;;;;;12.70;95.90;;;;;;5048977;28;19917;-67
2022/02/15 12:47:25;;;;;;;;;;;12.70;95.90;;;;;;5031437;28;19916;-64
2022/02/15 12:49:52;;;;;;;;;;;12.40;96.20;;;;;;5048924;28;20321;-67
2022/02/15 12:52:17;;;;;;;;;;;11.90;96.40;;;;;;5051910;28;19958;-64
2022/02/15 12:54:56;;;;;;;;;;;12.00;99.90;;;;;;5036569;28;20350;-65
2022/02/15 12:57:23;;;;;;;;;;;12.00;99.90;;;;;;5036281;28;19908;-64
2022/02/15 12:59:52;;;;;;;;;;;12.20;99.70;;;;;;5053358;28;19912;-65
2022/02/15 13:02:19;;;;;;;;;;;11.90;99.90;;;;;;5035929;28;19931;-64
2022/02/15 13:04:45;;;;;;;;;;;11.90;99.80;;;;;;5053458;28;19974;-64
2022/02/15 13:07:11;;;;;;;;;;;11.50;99.90;;;;;;5036589;28;19905;-65
2022/02/15 13:09:36;;;;;;;;;;;11.50;98.60;;;;;;5036937;28;19911;-66
2022/02/15 13:12:04;;;;;;;;;;;11.50;97.40;;;;;;5050267;28;19913;-65
2022/02/15 13:14:30;;;;;;;;;;;11.30;97.10;;;;;;5048964;28;19928;-65
2022/02/15 13:16:57;;;;;;;;;;;11.20;97.00;;;;;;5047692;28;20011;-66
2022/02/15 13:19:32;;;;;;;;;;;11.30;96.80;;;;;;5030821;28;19913;-68
2022/02/15 13:21:57;;;;;;;;;;;11.30;96.30;;;;;;5030119;28;20277;-66
2022/02/15 13:24:23;;;;;;;;;;;11.20;96.20;;;;;;5030869;28;19908;-66
2022/02/15 13:26:49;;;;;;;;;;;11.30;96.40;;;;;;5030203;28;20004;-64
2022/02/15 13:29:22;;;;;;;;;;;11.50;96.10;;;;;;5030914;28;20489;-66
2022/02/15 13:31:51;;;;;;;;;;;11.50;95.90;;;;;;5030024;28;19908;-65
2022/02/15 13:34:31;;;;;;;;;;;11.90;95.00;;;;;;5048783;28;19916;-68
2022/02/15 13:37:07;;;;;;;;;;;12.70;93.40;;;;;;5030066;28;19913;-65
2022/02/15 13:39:33;;;;;;;;;;;12.70;92.50;;;;;;5048847;28;19916;-68
2022/02/15 13:41:59;;;;;;;;;;;12.70;91.90;;;;;;5051966;28;19961;-68
2022/02/15 13:44:25;;;;;;;;;;;12.60;91.70;;;;;;5031073;28;20034;-66
2022/02/15 13:46:51;;;;;;;;;;;12.50;90.80;;;;;;5025608;28;19908;-67
2022/02/15 13:49:17;;;;;;;;;;;13.10;89.50;;;;;;5038197;28;20265;-66
2022/02/15 13:51:43;;;;;;;;;;;13.70;87.00;;;;;;5036842;28;19908;-67
2022/02/15 13:54:09;;;;;;;;;;;13.70;85.10;;;;;;5037244;28;20388;-67
2022/02/15 13:56:35;;;;;;;;;;;13.70;86.10;;;;;;5039883;28;19936;-65
2022/02/15 13:59:08;;;;;;;;;;;14.10;84.80;;;;;;5026214;28;19909;-65
2022/02/15 14:01:37;;;;;;;;;;;14.30;83.60;;;;;;5057114;28;19908;-66
2022/02/15 14:04:03;;;;;;;;;;;14.00;82.80;;;;;;5038284;28;20215;-65
2022/02/15 14:06:29;;;;;;;;;;;13.80;83.40;;;;;;5038890;28;19915;-64
2022/02/15 14:08:54;;;;;;;;;;;13.50;83.80;;;;;;5020448;28;20008;-66
2022/02/15 14:11:20;;;;;;;;;;;13.50;84.40;;;;;;5054198;28;19908;-68
2022/02/15 14:13:46;;;;;;;;;;;12.90;83.40;;;;;;5057670;28;19924;-65
2022/02/15 14:16:12;;;;;;;;;;;12.20;85.80;;;;;;5039292;28;19919;-63
2022/02/15 14:18:37;;;;;;;;;;;11.80;88.20;;;;;;5038900;28;19908;-65
2022/02/15 14:21:03;;;;;;;;;;;11.60;89.80;;;;;;5056089;28;20092;-63
2022/02/15 14:23:29;;;;;;;;;;;11.30;90.80;;;;;;5026771;28;19912;-65
2022/02/15 14:25:55;;;;;;;;;;;11.40;91.40;;;;;;5039601;28;19966;-64